sensor_id;sensor_type;location;lat;lon;timestamp;P1;durP1;ratioP1;P2;durP2;ratioP2
49860;SDS011;35761;48.826;9.238;2022-09-01T00:00:03;12.13;;;8.57;;
49860;SDS011;35761;48.826;9.238;2022-09-01T00:02:38;14.43;;;8.55;;
49860;SDS011;35761;48.826;9.238;2022-09-01T00:05:08;10.43;;;8.45;;
49860;SDS011;35761;48.826;9.238;2022-09-01T00:07:39;12.15;;;9.45;;
49860;SDS011;35761;48.826;9.238;2022-09-01T00:10:08;12.60;;;8.57;;
49860;SDS011;35761;48.826;9.238;2022-09-01T00:12:37;13.25;;;8.35;;
49860;SDS011;35761;48.826;9.238;2022-09-01T00:15:07;14.65;;;8.98;;
49860;SDS011;35761;48.826;9.238;2022-09-01T00:17:37;13.45;;;8.95;;
49860;SDS011;35761;48.826;9.238;2022-09-01T00:20:06;14.57;;;10.98;;
49860;SDS011;35761;48.826;9.238;2022-09-01T00:22:36;18.50;;;10.15;;
49860;SDS011;35761;48.826;9.238;2022-09-01T00:25:06;12.23;;;8.93;;
49860;SDS011;35761;48.826;9.238;2022-09-01T00:27:36;15.63;;;8.75;;
49860;SDS011;35761;48.826;9.238;2022-09-01T00:30:04;11.35;;;8.38;;
49860;SDS011;35761;48.826;9.238;2022-09-01T00:32:34;9.73;;;7.18;;
49860;SDS011;35761;48.826;9.238;2022-09-01T00:35:03;13.93;;;8.63;;
49860;SDS011;35761;48.826;9.238;2022-09-01T00:37:34;12.00;;;8.93;;
49860;SDS011;35761;48.826;9.238;2022-09-01T00:40:03;11.90;;;8.60;;
49860;SDS011;35761;48.826;9.238;2022-09-01T00:42:36;13.57;;;9.43;;
49860;SDS011;35761;48.826;9.238;2022-09-01T00:45:05;12.25;;;9.23;;
49860;SDS011;35761;48.826;9.238;2022-09-01T00:47:36;9.52;;;8.38;;
49860;SDS011;35761;48.826;9.238;2022-09-01T00:50:05;12.80;;;9.57;;
49860;SDS011;35761;48.826;9.238;2022-09-01T00:52:38;15.40;;;9.68;;
49860;SDS011;35761;48.826;9.238;2022-09-01T00:55:12;14.95;;;11.18;;
49860;SDS011;35761;48.826;9.238;2022-09-01T00:57:44;14.63;;;10.65;;
49860;SDS011;35761;48.826;9.238;2022-09-01T01:00:15;13.13;;;9.73;;
49860;SDS011;35761;48.826;9.238;2022-09-01T01:05:21;11.05;;;9.18;;
49860;SDS011;35761;48.826;9.238;2022-09-01T01:07:53;13.23;;;8.98;;
49860;SDS011;35761;48.826;9.238;2022-09-01T01:10:23;12.57;;;8.02;;
49860;SDS011;35761;48.826;9.238;2022-09-01T01:12:52;11.40;;;8.13;;
49860;SDS011;35761;48.826;9.238;2022-09-01T01:15:21;11.93;;;8.50;;
49860;SDS011;35761;48.826;9.238;2022-09-01T01:17:50;11.25;;;8.50;;
49860;SDS011;35761;48.826;9.238;2022-09-01T01:20:18;13.05;;;7.80;;
49860;SDS011;35761;48.826;9.238;2022-09-01T01:23:13;9.93;;;7.30;;
49860;SDS011;35761;48.826;9.238;2022-09-01T01:25:49;10.27;;;7.72;;
49860;SDS011;35761;48.826;9.238;2022-09-01T01:28:21;10.65;;;7.18;;
49860;SDS011;35761;48.826;9.238;2022-09-01T01:30:56;11.18;;;7.82;;
49860;SDS011;35761;48.826;9.238;2022-09-01T01:33:29;12.60;;;8.10;;
49860;SDS011;35761;48.826;9.238;2022-09-01T01:36:00;11.88;;;7.25;;
49860;SDS011;35761;48.826;9.238;2022-09-01T01:38:33;13.90;;;7.32;;
49860;SDS011;35761;48.826;9.238;2022-09-01T01:41:03;12.38;;;7.93;;
49860;SDS011;35761;48.826;9.238;2022-09-01T01:43:32;8.45;;;7.03;;
49860;SDS011;35761;48.826;9.238;2022-09-01T01:46:00;14.10;;;7.72;;
49860;SDS011;35761;48.826;9.238;2022-09-01T01:48:37;12.43;;;7.57;;
49860;SDS011;35761;48.826;9.238;2022-09-01T01:51:09;15.32;;;7.35;;
49860;SDS011;35761;48.826;9.238;2022-09-01T01:53:39;10.52;;;7.43;;
49860;SDS011;35761;48.826;9.238;2022-09-01T01:56:10;13.05;;;7.97;;
49860;SDS011;35761;48.826;9.238;2022-09-01T01:58:38;13.15;;;8.30;;
49860;SDS011;35761;48.826;9.238;2022-09-01T02:01:09;10.48;;;7.88;;
49860;SDS011;35761;48.826;9.238;2022-09-01T02:03:38;9.30;;;7.53;;
49860;SDS011;35761;48.826;9.238;2022-09-01T02:06:08;10.32;;;7.70;;
49860;SDS011;35761;48.826;9.238;2022-09-01T02:08:39;11.80;;;7.50;;
49860;SDS011;35761;48.826;9.238;2022-09-01T02:11:07;10.88;;;7.72;;
49860;SDS011;35761;48.826;9.238;2022-09-01T02:13:38;12.18;;;8.05;;
49860;SDS011;35761;48.826;9.238;2022-09-01T02:16:07;10.63;;;7.80;;
49860;SDS011;35761;48.826;9.238;2022-09-01T02:18:41;12.07;;;8.32;;
49860;SDS011;35761;48.826;9.238;2022-09-01T02:21:14;10.77;;;7.63;;
49860;SDS011;35761;48.826;9.238;2022-09-01T02:23:46;13.60;;;7.47;;
49860;SDS011;35761;48.826;9.238;2022-09-01T02:26:27;13.50;;;8.20;;
49860;SDS011;35761;48.826;9.238;2022-09-01T02:28:59;12.23;;;7.60;;
49860;SDS011;35761;48.826;9.238;2022-09-01T02:31:39;9.80;;;7.88;;
49860;SDS011;35761;48.826;9.238;2022-09-01T02:34:08;8.95;;;7.35;;
49860;SDS011;35761;48.826;9.238;2022-09-01T02:36:39;13.38;;;8.27;;
49860;SDS011;35761;48.826;9.238;2022-09-01T02:39:15;13.27;;;8.43;;
49860;SDS011;35761;48.826;9.238;2022-09-01T02:41:47;12.73;;;8.50;;
49860;SDS011;35761;48.826;9.238;2022-09-01T02:44:21;12.40;;;8.77;;
49860;SDS011;35761;48.826;9.238;2022-09-01T02:46:49;10.50;;;8.50;;
49860;SDS011;35761;48.826;9.238;2022-09-01T02:49:22;15.93;;;8.48;;
49860;SDS011;35761;48.826;9.238;2022-09-01T02:51:52;11.07;;;8.15;;
49860;SDS011;35761;48.826;9.238;2022-09-01T02:54:28;11.10;;;8.18;;
49860;SDS011;35761;48.826;9.238;2022-09-01T02:57:00;13.95;;;8.98;;
49860;SDS011;35761;48.826;9.238;2022-09-01T02:59:29;14.70;;;8.52;;
49860;SDS011;35761;48.826;9.238;2022-09-01T03:02:00;11.73;;;8.82;;
49860;SDS011;35761;48.826;9.238;2022-09-01T03:04:28;12.07;;;8.50;;
49860;SDS011;35761;48.826;9.238;2022-09-01T03:07:00;12.70;;;9.70;;
49860;SDS011;35761;48.826;9.238;2022-09-01T03:09:29;15.18;;;10.20;;
49860;SDS011;35761;48.826;9.238;2022-09-01T03:12:02;16.83;;;9.07;;
49860;SDS011;35761;48.826;9.238;2022-09-01T03:14:33;12.07;;;8.57;;
49860;SDS011;35761;48.826;9.238;2022-09-01T03:17:01;12.55;;;9.20;;
49860;SDS011;35761;48.826;9.238;2022-09-01T03:19:30;12.60;;;9.23;;
49860;SDS011;35761;48.826;9.238;2022-09-01T03:22:05;15.35;;;9.73;;
49860;SDS011;35761;48.826;9.238;2022-09-01T03:24:34;13.93;;;10.25;;
49860;SDS011;35761;48.826;9.238;2022-09-01T03:27:05;15.25;;;11.23;;
49860;SDS011;35761;48.826;9.238;2022-09-01T03:29:37;13.35;;;10.70;;
49860;SDS011;35761;48.826;9.238;2022-09-01T03:32:06;22.30;;;10.55;;
49860;SDS011;35761;48.826;9.238;2022-09-01T03:34:34;12.07;;;10.02;;
49860;SDS011;35761;48.826;9.238;2022-09-01T03:37:04;13.25;;;10.50;;
49860;SDS011;35761;48.826;9.238;2022-09-01T03:39:34;15.00;;;10.80;;
49860;SDS011;35761;48.826;9.238;2022-09-01T03:42:02;14.30;;;11.07;;
49860;SDS011;35761;48.826;9.238;2022-09-01T03:44:35;15.38;;;11.65;;
49860;SDS011;35761;48.826;9.238;2022-09-01T03:47:05;14.43;;;10.75;;
49860;SDS011;35761;48.826;9.238;2022-09-01T03:49:37;17.30;;;13.20;;
49860;SDS011;35761;48.826;9.238;2022-09-01T03:52:05;16.13;;;11.82;;
49860;SDS011;35761;48.826;9.238;2022-09-01T03:54:34;19.00;;;12.85;;
49860;SDS011;35761;48.826;9.238;2022-09-01T03:57:04;15.52;;;11.75;;
49860;SDS011;35761;48.826;9.238;2022-09-01T03:59:37;16.48;;;11.65;;
49860;SDS011;35761;48.826;9.238;2022-09-01T04:02:08;14.45;;;10.32;;
49860;SDS011;35761;48.826;9.238;2022-09-01T04:04:38;25.33;;;10.50;;
49860;SDS011;35761;48.826;9.238;2022-09-01T04:07:07;13.70;;;10.57;;
49860;SDS011;35761;48.826;9.238;2022-09-01T04:09:44;12.00;;;9.30;;
49860;SDS011;35761;48.826;9.238;2022-09-01T04:12:13;13.63;;;9.57;;
49860;SDS011;35761;48.826;9.238;2022-09-01T04:14:48;14.35;;;10.52;;
49860;SDS011;35761;48.826;9.238;2022-09-01T04:17:17;15.77;;;9.93;;
49860;SDS011;35761;48.826;9.238;2022-09-01T04:20:04;13.00;;;10.27;;
49860;SDS011;35761;48.826;9.238;2022-09-01T04:22:35;13.18;;;9.75;;
49860;SDS011;35761;48.826;9.238;2022-09-01T04:25:04;15.05;;;9.80;;
49860;SDS011;35761;48.826;9.238;2022-09-01T04:27:34;17.95;;;11.13;;
49860;SDS011;35761;48.826;9.238;2022-09-01T04:30:08;30.35;;;27.17;;
49860;SDS011;35761;48.826;9.238;2022-09-01T04:32:41;25.33;;;15.10;;
49860;SDS011;35761;48.826;9.238;2022-09-01T04:35:12;13.98;;;11.93;;
49860;SDS011;35761;48.826;9.238;2022-09-01T04:37:43;17.85;;;12.55;;
49860;SDS011;35761;48.826;9.238;2022-09-01T04:40:14;15.25;;;12.18;;
49860;SDS011;35761;48.826;9.238;2022-09-01T04:42:43;14.43;;;11.27;;
49860;SDS011;35761;48.826;9.238;2022-09-01T04:45:13;17.38;;;11.48;;
49860;SDS011;35761;48.826;9.238;2022-09-01T04:47:46;15.43;;;10.90;;
49860;SDS011;35761;48.826;9.238;2022-09-01T04:50:16;19.95;;;11.43;;
49860;SDS011;35761;48.826;9.238;2022-09-01T04:53:05;14.57;;;11.40;;
49860;SDS011;35761;48.826;9.238;2022-09-01T04:55:40;13.65;;;10.85;;
49860;SDS011;35761;48.826;9.238;2022-09-01T04:58:10;14.73;;;11.13;;
49860;SDS011;35761;48.826;9.238;2022-09-01T05:00:44;17.08;;;11.52;;
49860;SDS011;35761;48.826;9.238;2022-09-01T05:03:16;15.65;;;10.57;;
49860;SDS011;35761;48.826;9.238;2022-09-01T05:05:55;16.52;;;11.40;;
49860;SDS011;35761;48.826;9.238;2022-09-01T05:08:26;23.08;;;11.15;;
49860;SDS011;35761;48.826;9.238;2022-09-01T05:10:59;14.38;;;11.30;;
49860;SDS011;35761;48.826;9.238;2022-09-01T05:13:38;18.27;;;11.23;;
49860;SDS011;35761;48.826;9.238;2022-09-01T05:16:08;13.88;;;10.88;;
49860;SDS011;35761;48.826;9.238;2022-09-01T05:18:43;15.07;;;10.85;;
49860;SDS011;35761;48.826;9.238;2022-09-01T05:21:15;17.75;;;13.60;;
49860;SDS011;35761;48.826;9.238;2022-09-01T05:23:47;19.83;;;12.52;;
49860;SDS011;35761;48.826;9.238;2022-09-01T05:26:18;16.70;;;13.40;;
49860;SDS011;35761;48.826;9.238;2022-09-01T05:28:49;16.40;;;12.40;;
49860;SDS011;35761;48.826;9.238;2022-09-01T05:31:22;17.27;;;13.88;;
49860;SDS011;35761;48.826;9.238;2022-09-01T05:33:53;23.55;;;13.00;;
49860;SDS011;35761;48.826;9.238;2022-09-01T05:36:23;16.88;;;13.02;;
49860;SDS011;35761;48.826;9.238;2022-09-01T05:38:54;16.27;;;12.85;;
49860;SDS011;35761;48.826;9.238;2022-09-01T05:41:23;23.55;;;13.38;;
49860;SDS011;35761;48.826;9.238;2022-09-01T05:43:52;21.70;;;12.73;;
49860;SDS011;35761;48.826;9.238;2022-09-01T05:48:57;17.63;;;12.60;;
49860;SDS011;35761;48.826;9.238;2022-09-01T05:51:26;17.02;;;13.82;;
49860;SDS011;35761;48.826;9.238;2022-09-01T05:54:11;17.23;;;12.52;;
49860;SDS011;35761;48.826;9.238;2022-09-01T05:56:40;17.73;;;13.30;;
49860;SDS011;35761;48.826;9.238;2022-09-01T05:59:14;15.57;;;12.95;;
49860;SDS011;35761;48.826;9.238;2022-09-01T06:01:57;18.20;;;13.57;;
49860;SDS011;35761;48.826;9.238;2022-09-01T06:04:26;17.15;;;13.73;;
49860;SDS011;35761;48.826;9.238;2022-09-01T06:07:01;21.00;;;14.15;;
49860;SDS011;35761;48.826;9.238;2022-09-01T06:09:41;21.50;;;13.95;;
49860;SDS011;35761;48.826;9.238;2022-09-01T06:12:11;20.23;;;13.38;;
49860;SDS011;35761;48.826;9.238;2022-09-01T06:14:46;22.02;;;14.45;;
49860;SDS011;35761;48.826;9.238;2022-09-01T06:17:19;15.75;;;13.10;;
49860;SDS011;35761;48.826;9.238;2022-09-01T06:19:52;20.00;;;15.05;;
49860;SDS011;35761;48.826;9.238;2022-09-01T06:22:23;19.55;;;14.52;;
49860;SDS011;35761;48.826;9.238;2022-09-01T06:24:56;18.15;;;14.23;;
49860;SDS011;35761;48.826;9.238;2022-09-01T06:27:34;21.63;;;14.88;;
49860;SDS011;35761;48.826;9.238;2022-09-01T06:30:07;17.85;;;14.30;;
49860;SDS011;35761;48.826;9.238;2022-09-01T06:32:50;19.70;;;14.43;;
49860;SDS011;35761;48.826;9.238;2022-09-01T06:35:19;19.48;;;15.10;;
49860;SDS011;35761;48.826;9.238;2022-09-01T06:37:56;17.40;;;14.55;;
49860;SDS011;35761;48.826;9.238;2022-09-01T06:40:46;18.40;;;15.10;;
49860;SDS011;35761;48.826;9.238;2022-09-01T06:43:20;16.63;;;14.77;;
49860;SDS011;35761;48.826;9.238;2022-09-01T06:45:49;22.75;;;15.80;;
49860;SDS011;35761;48.826;9.238;2022-09-01T06:48:23;20.00;;;15.25;;
49860;SDS011;35761;48.826;9.238;2022-09-01T06:50:58;19.35;;;15.50;;
49860;SDS011;35761;48.826;9.238;2022-09-01T06:53:52;20.40;;;14.80;;
49860;SDS011;35761;48.826;9.238;2022-09-01T06:56:30;16.77;;;13.23;;
49860;SDS011;35761;48.826;9.238;2022-09-01T06:59:21;16.15;;;13.23;;
49860;SDS011;35761;48.826;9.238;2022-09-01T07:02:01;18.98;;;14.30;;
49860;SDS011;35761;48.826;9.238;2022-09-01T07:05:29;18.35;;;13.85;;
49860;SDS011;35761;48.826;9.238;2022-09-01T07:08:29;17.95;;;13.90;;
49860;SDS011;35761;48.826;9.238;2022-09-01T07:11:26;14.15;;;12.50;;
49860;SDS011;35761;48.826;9.238;2022-09-01T07:14:18;17.50;;;12.48;;
49860;SDS011;35761;48.826;9.238;2022-09-01T07:16:46;18.27;;;14.00;;
49860;SDS011;35761;48.826;9.238;2022-09-01T07:19:36;17.90;;;13.70;;
49860;SDS011;35761;48.826;9.238;2022-09-01T07:22:23;15.88;;;12.90;;
49860;SDS011;35761;48.826;9.238;2022-09-01T07:25:11;18.13;;;12.73;;
49860;SDS011;35761;48.826;9.238;2022-09-01T07:27:58;15.70;;;13.02;;
49860;SDS011;35761;48.826;9.238;2022-09-01T07:30:27;19.60;;;12.30;;
49860;SDS011;35761;48.826;9.238;2022-09-01T07:32:58;17.10;;;13.00;;
49860;SDS011;35761;48.826;9.238;2022-09-01T07:35:46;19.05;;;13.02;;
49860;SDS011;35761;48.826;9.238;2022-09-01T07:38:38;17.80;;;11.98;;
49860;SDS011;35761;48.826;9.238;2022-09-01T07:41:26;14.57;;;11.20;;
49860;SDS011;35761;48.826;9.238;2022-09-01T07:44:54;11.52;;;10.23;;
49860;SDS011;35761;48.826;9.238;2022-09-01T07:47:55;13.70;;;10.38;;
49860;SDS011;35761;48.826;9.238;2022-09-01T07:50:33;31.80;;;22.40;;
49860;SDS011;35761;48.826;9.238;2022-09-01T07:53:24;18.42;;;11.75;;
49860;SDS011;35761;48.826;9.238;2022-09-01T07:55:59;16.60;;;10.38;;
49860;SDS011;35761;48.826;9.238;2022-09-01T07:58:40;11.48;;;9.48;;
49860;SDS011;35761;48.826;9.238;2022-09-01T08:01:09;11.95;;;10.07;;
49860;SDS011;35761;48.826;9.238;2022-09-01T08:03:43;12.00;;;9.25;;
49860;SDS011;35761;48.826;9.238;2022-09-01T08:06:15;13.45;;;10.02;;
49860;SDS011;35761;48.826;9.238;2022-09-01T08:08:47;11.95;;;8.95;;
49860;SDS011;35761;48.826;9.238;2022-09-01T08:11:25;13.48;;;8.80;;
49860;SDS011;35761;48.826;9.238;2022-09-01T08:14:16;11.70;;;8.55;;
49860;SDS011;35761;48.826;9.238;2022-09-01T08:16:46;12.45;;;9.90;;
49860;SDS011;35761;48.826;9.238;2022-09-01T08:19:19;15.20;;;10.35;;
49860;SDS011;35761;48.826;9.238;2022-09-01T08:22:02;15.48;;;10.00;;
49860;SDS011;35761;48.826;9.238;2022-09-01T08:24:54;13.60;;;9.75;;
49860;SDS011;35761;48.826;9.238;2022-09-01T08:27:24;10.43;;;8.90;;
49860;SDS011;35761;48.826;9.238;2022-09-01T08:29:53;9.38;;;7.95;;
49860;SDS011;35761;48.826;9.238;2022-09-01T08:32:22;10.93;;;8.38;;
49860;SDS011;35761;48.826;9.238;2022-09-01T08:34:51;12.25;;;9.45;;
49860;SDS011;35761;48.826;9.238;2022-09-01T08:37:20;13.43;;;8.95;;
49860;SDS011;35761;48.826;9.238;2022-09-01T08:39:48;10.65;;;8.43;;
49860;SDS011;35761;48.826;9.238;2022-09-01T08:42:20;13.32;;;7.97;;
49860;SDS011;35761;48.826;9.238;2022-09-01T08:45:06;14.88;;;8.13;;
49860;SDS011;35761;48.826;9.238;2022-09-01T08:47:42;10.15;;;7.47;;
49860;SDS011;35761;48.826;9.238;2022-09-01T08:50:32;9.13;;;6.72;;
49860;SDS011;35761;48.826;9.238;2022-09-01T08:53:21;8.00;;;5.75;;
49860;SDS011;35761;48.826;9.238;2022-09-01T08:55:58;6.78;;;4.97;;
49860;SDS011;35761;48.826;9.238;2022-09-01T08:58:29;6.18;;;4.75;;
49860;SDS011;35761;48.826;9.238;2022-09-01T09:01:02;5.33;;;4.50;;
49860;SDS011;35761;48.826;9.238;2022-09-01T09:03:41;6.05;;;4.50;;
49860;SDS011;35761;48.826;9.238;2022-09-01T09:06:18;10.35;;;5.30;;
49860;SDS011;35761;48.826;9.238;2022-09-01T09:08:52;7.15;;;5.50;;
49860;SDS011;35761;48.826;9.238;2022-09-01T09:11:32;7.05;;;5.00;;
49860;SDS011;35761;48.826;9.238;2022-09-01T09:14:53;6.35;;;4.93;;
49860;SDS011;35761;48.826;9.238;2022-09-01T09:17:36;7.05;;;5.28;;
49860;SDS011;35761;48.826;9.238;2022-09-01T09:20:09;5.85;;;5.20;;
49860;SDS011;35761;48.826;9.238;2022-09-01T09:22:38;12.05;;;5.20;;
49860;SDS011;35761;48.826;9.238;2022-09-01T09:25:09;7.25;;;5.60;;
49860;SDS011;35761;48.826;9.238;2022-09-01T09:27:45;10.38;;;5.50;;
49860;SDS011;35761;48.826;9.238;2022-09-01T09:30:27;8.43;;;5.15;;
49860;SDS011;35761;48.826;9.238;2022-09-01T09:32:58;7.20;;;6.00;;
49860;SDS011;35761;48.826;9.238;2022-09-01T09:35:50;8.50;;;5.35;;
49860;SDS011;35761;48.826;9.238;2022-09-01T09:38:21;8.88;;;5.35;;
49860;SDS011;35761;48.826;9.238;2022-09-01T09:40:55;12.05;;;5.40;;
49860;SDS011;35761;48.826;9.238;2022-09-01T09:43:46;12.20;;;6.25;;
49860;SDS011;35761;48.826;9.238;2022-09-01T09:46:24;9.57;;;5.25;;
49860;SDS011;35761;48.826;9.238;2022-09-01T09:49:11;8.52;;;5.18;;
49860;SDS011;35761;48.826;9.238;2022-09-01T09:52:12;7.47;;;4.43;;
49860;SDS011;35761;48.826;9.238;2022-09-01T09:54:57;7.85;;;4.72;;
49860;SDS011;35761;48.826;9.238;2022-09-01T09:57:30;6.80;;;4.45;;
49860;SDS011;35761;48.826;9.238;2022-09-01T10:00:06;5.53;;;4.43;;
49860;SDS011;35761;48.826;9.238;2022-09-01T10:02:55;7.22;;;4.22;;
49860;SDS011;35761;48.826;9.238;2022-09-01T10:05:37;5.38;;;4.20;;
49860;SDS011;35761;48.826;9.238;2022-09-01T10:08:09;7.32;;;4.05;;
49860;SDS011;35761;48.826;9.238;2022-09-01T10:10:46;5.90;;;4.30;;
49860;SDS011;35761;48.826;9.238;2022-09-01T10:13:24;6.00;;;4.90;;
49860;SDS011;35761;48.826;9.238;2022-09-01T10:18:35;7.43;;;4.17;;
49860;SDS011;35761;48.826;9.238;2022-09-01T10:21:09;5.00;;;3.50;;
49860;SDS011;35761;48.826;9.238;2022-09-01T10:26:12;5.32;;;4.00;;
49860;SDS011;35761;48.826;9.238;2022-09-01T10:28:45;5.38;;;3.97;;
49860;SDS011;35761;48.826;9.238;2022-09-01T10:31:19;5.88;;;4.32;;
49860;SDS011;35761;48.826;9.238;2022-09-01T10:33:59;6.28;;;4.38;;
49860;SDS011;35761;48.826;9.238;2022-09-01T10:36:32;5.45;;;3.60;;
49860;SDS011;35761;48.826;9.238;2022-09-01T10:39:03;6.10;;;4.25;;
49860;SDS011;35761;48.826;9.238;2022-09-01T10:41:45;6.88;;;3.60;;
49860;SDS011;35761;48.826;9.238;2022-09-01T10:44:26;5.80;;;4.30;;
49860;SDS011;35761;48.826;9.238;2022-09-01T10:47:02;5.95;;;4.10;;
49860;SDS011;35761;48.826;9.238;2022-09-01T10:52:52;5.18;;;3.60;;
49860;SDS011;35761;48.826;9.238;2022-09-01T10:55:36;4.53;;;3.90;;
49860;SDS011;35761;48.826;9.238;2022-09-01T10:58:23;6.35;;;3.80;;
49860;SDS011;35761;48.826;9.238;2022-09-01T11:05:13;6.25;;;3.47;;
49860;SDS011;35761;48.826;9.238;2022-09-01T11:07:44;6.30;;;4.18;;
49860;SDS011;35761;48.826;9.238;2022-09-01T11:10:32;5.95;;;3.35;;
49860;SDS011;35761;48.826;9.238;2022-09-01T11:22:15;5.10;;;2.75;;
49860;SDS011;35761;48.826;9.238;2022-09-01T11:28:08;4.97;;;3.03;;
49860;SDS011;35761;48.826;9.238;2022-09-01T11:31:31;7.30;;;3.47;;
49860;SDS011;35761;48.826;9.238;2022-09-01T11:34:12;5.70;;;3.15;;
49860;SDS011;35761;48.826;9.238;2022-09-01T11:36:46;9.52;;;3.45;;
49860;SDS011;35761;48.826;9.238;2022-09-01T11:39:37;4.53;;;3.10;;
49860;SDS011;35761;48.826;9.238;2022-09-01T11:42:10;9.02;;;3.00;;
49860;SDS011;35761;48.826;9.238;2022-09-01T11:44:47;9.20;;;3.40;;
49860;SDS011;35761;48.826;9.238;2022-09-01T11:47:20;9.38;;;3.83;;
49860;SDS011;35761;48.826;9.238;2022-09-01T11:49:53;6.15;;;3.33;;
49860;SDS011;35761;48.826;9.238;2022-09-01T11:52:25;4.50;;;3.20;;
49860;SDS011;35761;48.826;9.238;2022-09-01T11:54:58;4.25;;;2.70;;
49860;SDS011;35761;48.826;9.238;2022-09-01T11:57:28;7.65;;;3.00;;
49860;SDS011;35761;48.826;9.238;2022-09-01T11:59:59;4.15;;;3.15;;
49860;SDS011;35761;48.826;9.238;2022-09-01T12:02:41;5.22;;;2.92;;
49860;SDS011;35761;48.826;9.238;2022-09-01T12:05:23;6.40;;;3.22;;
49860;SDS011;35761;48.826;9.238;2022-09-01T12:07:56;4.47;;;2.70;;
49860;SDS011;35761;48.826;9.238;2022-09-01T12:10:29;3.72;;;2.80;;
49860;SDS011;35761;48.826;9.238;2022-09-01T12:13:02;3.30;;;2.55;;
49860;SDS011;35761;48.826;9.238;2022-09-01T12:15:32;3.97;;;2.53;;
49860;SDS011;35761;48.826;9.238;2022-09-01T12:18:21;4.03;;;2.83;;
49860;SDS011;35761;48.826;9.238;2022-09-01T12:20:53;4.43;;;2.67;;
49860;SDS011;35761;48.826;9.238;2022-09-01T12:23:25;3.90;;;2.55;;
49860;SDS011;35761;48.826;9.238;2022-09-01T12:25:58;3.00;;;2.17;;
49860;SDS011;35761;48.826;9.238;2022-09-01T12:28:29;10.63;;;3.58;;
49860;SDS011;35761;48.826;9.238;2022-09-01T12:31:00;6.57;;;2.80;;
49860;SDS011;35761;48.826;9.238;2022-09-01T12:33:33;5.20;;;2.60;;
49860;SDS011;35761;48.826;9.238;2022-09-01T12:36:12;3.13;;;2.10;;
49860;SDS011;35761;48.826;9.238;2022-09-01T12:38:42;4.13;;;2.63;;
49860;SDS011;35761;48.826;9.238;2022-09-01T12:46:59;5.43;;;2.97;;
49860;SDS011;35761;48.826;9.238;2022-09-01T12:49:34;4.20;;;2.88;;
49860;SDS011;35761;48.826;9.238;2022-09-01T12:52:19;5.43;;;2.10;;
49860;SDS011;35761;48.826;9.238;2022-09-01T12:54:53;6.40;;;4.40;;
49860;SDS011;35761;48.826;9.238;2022-09-01T12:58:05;7.93;;;2.42;;
49860;SDS011;35761;48.826;9.238;2022-09-01T13:00:36;3.28;;;2.40;;
49860;SDS011;35761;48.826;9.238;2022-09-01T13:03:27;6.70;;;2.40;;
49860;SDS011;35761;48.826;9.238;2022-09-01T13:06:00;3.67;;;2.40;;
49860;SDS011;35761;48.826;9.238;2022-09-01T13:08:30;5.20;;;2.47;;
49860;SDS011;35761;48.826;9.238;2022-09-01T13:11:03;3.50;;;2.28;;
49860;SDS011;35761;48.826;9.238;2022-09-01T13:13:37;6.75;;;2.50;;
49860;SDS011;35761;48.826;9.238;2022-09-01T13:16:08;7.22;;;2.50;;
49860;SDS011;35761;48.826;9.238;2022-09-01T13:18:39;3.45;;;2.30;;
49860;SDS011;35761;48.826;9.238;2022-09-01T13:21:29;4.05;;;2.90;;
49860;SDS011;35761;48.826;9.238;2022-09-01T13:24:00;3.00;;;2.40;;
49860;SDS011;35761;48.826;9.238;2022-09-01T13:26:30;3.70;;;2.00;;
49860;SDS011;35761;48.826;9.238;2022-09-01T13:29:01;5.47;;;2.63;;
49860;SDS011;35761;48.826;9.238;2022-09-01T13:31:29;4.65;;;2.50;;
49860;SDS011;35761;48.826;9.238;2022-09-01T13:33:59;6.20;;;2.40;;
49860;SDS011;35761;48.826;9.238;2022-09-01T13:36:36;4.03;;;2.00;;
49860;SDS011;35761;48.826;9.238;2022-09-01T13:39:13;4.35;;;2.47;;
49860;SDS011;35761;48.826;9.238;2022-09-01T13:41:41;7.25;;;2.25;;
49860;SDS011;35761;48.826;9.238;2022-09-01T13:44:11;6.75;;;2.17;;
49860;SDS011;35761;48.826;9.238;2022-09-01T13:46:39;3.03;;;1.80;;
49860;SDS011;35761;48.826;9.238;2022-09-01T13:49:28;3.28;;;2.03;;
49860;SDS011;35761;48.826;9.238;2022-09-01T13:52:16;5.30;;;2.10;;
49860;SDS011;35761;48.826;9.238;2022-09-01T13:54:46;3.10;;;2.13;;
49860;SDS011;35761;48.826;9.238;2022-09-01T13:57:14;3.67;;;2.05;;
49860;SDS011;35761;48.826;9.238;2022-09-01T13:59:44;4.65;;;2.15;;
49860;SDS011;35761;48.826;9.238;2022-09-01T14:02:13;6.10;;;2.53;;
49860;SDS011;35761;48.826;9.238;2022-09-01T14:04:41;3.45;;;2.70;;
49860;SDS011;35761;48.826;9.238;2022-09-01T14:07:10;4.35;;;2.40;;
49860;SDS011;35761;48.826;9.238;2022-09-01T14:09:38;2.83;;;1.90;;
49860;SDS011;35761;48.826;9.238;2022-09-01T14:12:07;5.13;;;2.30;;
49860;SDS011;35761;48.826;9.238;2022-09-01T14:14:35;3.25;;;2.10;;
49860;SDS011;35761;48.826;9.238;2022-09-01T14:17:25;7.07;;;2.22;;
49860;SDS011;35761;48.826;9.238;2022-09-01T14:19:53;3.17;;;2.35;;
49860;SDS011;35761;48.826;9.238;2022-09-01T14:22:22;3.63;;;2.30;;
49860;SDS011;35761;48.826;9.238;2022-09-01T14:24:51;3.80;;;1.90;;
49860;SDS011;35761;48.826;9.238;2022-09-01T14:27:19;4.60;;;2.17;;
49860;SDS011;35761;48.826;9.238;2022-09-01T14:29:48;2.78;;;1.95;;
49860;SDS011;35761;48.826;9.238;2022-09-01T14:32:20;2.78;;;2.00;;
49860;SDS011;35761;48.826;9.238;2022-09-01T14:34:54;3.42;;;2.30;;
49860;SDS011;35761;48.826;9.238;2022-09-01T14:37:24;5.55;;;3.10;;
49860;SDS011;35761;48.826;9.238;2022-09-01T14:39:54;4.53;;;2.10;;
49860;SDS011;35761;48.826;9.238;2022-09-01T14:42:24;8.85;;;2.30;;
49860;SDS011;35761;48.826;9.238;2022-09-01T14:44:54;8.38;;;1.90;;
49860;SDS011;35761;48.826;9.238;2022-09-01T14:47:23;2.90;;;1.95;;
49860;SDS011;35761;48.826;9.238;2022-09-01T14:49:54;4.40;;;2.65;;
49860;SDS011;35761;48.826;9.238;2022-09-01T14:52:23;9.38;;;3.35;;
49860;SDS011;35761;48.826;9.238;2022-09-01T14:54:52;3.92;;;2.80;;
49860;SDS011;35761;48.826;9.238;2022-09-01T14:57:22;5.50;;;2.05;;
49860;SDS011;35761;48.826;9.238;2022-09-01T15:00:04;2.92;;;2.00;;
49860;SDS011;35761;48.826;9.238;2022-09-01T15:02:37;2.85;;;1.80;;
49860;SDS011;35761;48.826;9.238;2022-09-01T15:05:10;4.50;;;2.22;;
49860;SDS011;35761;48.826;9.238;2022-09-01T15:07:40;5.15;;;2.03;;
49860;SDS011;35761;48.826;9.238;2022-09-01T15:10:10;3.97;;;2.10;;
49860;SDS011;35761;48.826;9.238;2022-09-01T15:12:50;3.53;;;1.83;;
49860;SDS011;35761;48.826;9.238;2022-09-01T15:15:21;7.75;;;2.08;;
49860;SDS011;35761;48.826;9.238;2022-09-01T15:17:50;7.20;;;1.98;;
49860;SDS011;35761;48.826;9.238;2022-09-01T15:20:22;3.22;;;1.77;;
49860;SDS011;35761;48.826;9.238;2022-09-01T15:23:13;2.58;;;1.73;;
49860;SDS011;35761;48.826;9.238;2022-09-01T15:25:44;3.42;;;2.00;;
49860;SDS011;35761;48.826;9.238;2022-09-01T15:28:13;4.47;;;2.60;;
49860;SDS011;35761;48.826;9.238;2022-09-01T15:30:42;3.85;;;2.40;;
49860;SDS011;35761;48.826;9.238;2022-09-01T15:33:12;5.85;;;2.03;;
49860;SDS011;35761;48.826;9.238;2022-09-01T15:35:43;3.88;;;2.28;;
49860;SDS011;35761;48.826;9.238;2022-09-01T15:38:13;7.63;;;3.55;;
49860;SDS011;35761;48.826;9.238;2022-09-01T15:40:45;5.45;;;1.98;;
49860;SDS011;35761;48.826;9.238;2022-09-01T15:43:22;5.80;;;1.80;;
49860;SDS011;35761;48.826;9.238;2022-09-01T15:45:51;2.63;;;1.65;;
49860;SDS011;35761;48.826;9.238;2022-09-01T15:48:20;4.57;;;1.67;;
49860;SDS011;35761;48.826;9.238;2022-09-01T15:50:50;3.88;;;2.00;;
49860;SDS011;35761;48.826;9.238;2022-09-01T15:53:19;2.22;;;1.45;;
49860;SDS011;35761;48.826;9.238;2022-09-01T15:55:47;4.03;;;1.80;;